This is the latest recevied weather packets stored in our database for station/object W4SMH. If no packets are shown the sender has not sent any weather packets the latest 10 day(s).
| Time | Temp. | Humidity | Pressure | Rain* | Wind** | Luminosity | Snow |
|---|---|---|---|---|---|---|---|
| 1777394312 | 13.89° C | 69% | 1011.4 hPa | 0 mm | - | 1095 W/m² | - |
| 1777393964 | 13.33° C | 70% | 1011.4 hPa | 0 mm | - | 1078 W/m² | - |
| 1777393253 | 13.33° C | 69% | 1011.5 hPa | 0 mm | - | 387 W/m² | - |
| 1777393180 | 13.33° C | 70% | 1011.5 hPa | 0 mm | - | 413 W/m² | - |
| 1777392963 | 5.56° C | 92% | 1017.3 hPa | 0 mm | - | 32 W/m² | - |
| 1777392816 | 13.33° C | 70% | 1011.3 hPa | 0 mm | - | 410 W/m² | - |
| 1777392640 | 13.33° C | 70% | 1011.2 hPa | 0 mm | - | 448 W/m² | - |
| 1777392498 | 13.33° C | 71% | 1011.2 hPa | 0 mm | - | 476 W/m² | - |
| 1777392333 | 13.33° C | 71% | 1011.1 hPa | 0 mm | - | 457 W/m² | - |
| 1777392168 | 13.33° C | 70% | 1010.9 hPa | 0 mm | - | 338 W/m² | - |
| 1777391740 | 13.33° C | 71% | 1011 hPa | 0 mm | - | 904 W/m² | - |
| 1777391636 | 13.33° C | 72% | 1010.8 hPa | 0 mm | - | 954 W/m² | - |
| 1777391610 | 13.33° C | 72% | 1010.8 hPa | 0 mm | - | 1011 W/m² | - |
| 1777391513 | 12.78° C | 72% | 1010.8 hPa | 0 mm | - | 1034 W/m² | - |
| 1777391482 | 13.33° C | 72% | 1010.8 hPa | 0 mm | - | 1034 W/m² | - |
| 1777391457 | 12.78° C | 72% | 1010.8 hPa | 0 mm | - | 1020 W/m² | - |
| 1777390984 | 12.78° C | 72% | 1010.6 hPa | 0 mm | - | 1063 W/m² | - |
| 1777390146 | 12.78° C | 72% | 1010.6 hPa | 0 mm | - | 359 W/m² | - |
| 1777390141 | 5° C | 91% | 1017 hPa | 0 mm | - | 12 W/m² | - |
| 1777389618 | 12.78° C | 72% | 1010.4 hPa | 0 mm | - | 172 W/m² | - |
* Rain latest hour (hover to see other rain measurements)
** Current wind speed in m/s (hover to see current wind gust speed)